createdAt,value
2019-03-30T00:00:13.798Z,196.80
2019-03-30T00:02:41.472Z,199.10
2019-03-30T00:05:08.833Z,191.60
2019-03-30T00:07:36.213Z,191.97
2019-03-30T00:10:04.404Z,181.73
2019-03-30T00:12:31.739Z,182.97
2019-03-30T00:14:59.149Z,185.03
2019-03-30T00:17:26.578Z,187.13
2019-03-30T00:19:53.914Z,192.53
2019-03-30T00:22:21.382Z,177.77
2019-03-30T00:24:48.947Z,183.03
2019-03-30T00:27:16.271Z,166.77
2019-03-30T00:29:43.668Z,158.30
2019-03-30T00:32:12.381Z,158.50
2019-03-30T00:34:39.805Z,162.67
2019-03-30T00:37:07.131Z,168.33
2019-03-30T00:39:34.561Z,160.80
2019-03-30T00:42:01.894Z,157.90
2019-03-30T00:44:29.249Z,152.53
2019-03-30T00:46:56.600Z,155.13
2019-03-30T00:49:23.938Z,161.23
2019-03-30T00:51:51.286Z,164.03
2019-03-30T00:54:18.735Z,157.57
2019-03-30T00:56:46.172Z,159.07
2019-03-30T00:59:13.499Z,151.70
2019-03-30T01:01:40.928Z,151.23
2019-03-30T01:04:08.285Z,155.13
2019-03-30T01:06:35.660Z,152.27
2019-03-30T01:09:03.629Z,145.33
2019-03-30T01:11:31.111Z,149.87
2019-03-30T01:13:58.455Z,143.03
2019-03-30T01:16:25.794Z,148.10
2019-03-30T01:18:53.188Z,155.77
2019-03-30T01:21:20.565Z,147.73
2019-03-30T01:23:48.048Z,152.17
2019-03-30T01:26:15.417Z,150.33
2019-03-30T01:28:42.835Z,146.43
2019-03-30T01:31:11.550Z,151.00
2019-03-30T01:33:39.001Z,149.73
2019-03-30T01:36:06.346Z,152.00
2019-03-30T01:38:33.753Z,149.47
2019-03-30T01:41:01.179Z,145.33
2019-03-30T01:43:28.545Z,144.77
2019-03-30T01:45:55.939Z,148.30
2019-03-30T01:48:23.293Z,175.07
2019-03-30T01:50:50.661Z,162.10
2019-03-30T01:53:18.308Z,164.47
2019-03-30T01:55:45.693Z,174.67
2019-03-30T01:58:13.137Z,177.83
2019-03-30T02:00:40.470Z,178.10
2019-03-30T02:03:07.901Z,176.87
2019-03-30T02:05:35.297Z,173.53
2019-03-30T02:08:02.631Z,170.33
2019-03-30T02:10:37.623Z,181.50
2019-03-30T02:13:04.956Z,170.27
2019-03-30T02:15:32.449Z,173.50
2019-03-30T02:17:59.801Z,169.47
2019-03-30T02:20:30.860Z,156.97
2019-03-30T02:22:57.964Z,163.00
2019-03-30T02:25:25.374Z,158.40
2019-03-30T02:27:52.668Z,154.03
2019-03-30T02:30:20.187Z,152.57
2019-03-30T02:32:47.564Z,148.07
2019-03-30T02:35:14.966Z,146.30
2019-03-30T02:37:42.264Z,147.30
2019-03-30T02:40:09.639Z,145.33
2019-03-30T02:42:37.060Z,147.43
2019-03-30T02:45:05.255Z,134.90
2019-03-30T02:47:32.689Z,132.70
2019-03-30T02:50:00.458Z,128.60
2019-03-30T02:52:27.989Z,117.33
2019-03-30T02:54:55.701Z,115.10
2019-03-30T02:57:23.028Z,120.50
2019-03-30T02:59:50.490Z,114.27
2019-03-30T03:02:20.005Z,114.83
2019-03-30T03:04:47.361Z,103.00
2019-03-30T03:07:17.285Z,105.87
2019-03-30T03:09:44.711Z,102.83
2019-03-30T03:12:12.058Z,105.87
2019-03-30T03:14:39.769Z,103.97
2019-03-30T03:17:07.179Z,103.63
2019-03-30T03:19:34.525Z,101.03
2019-03-30T03:22:01.858Z,98.00
2019-03-30T03:24:29.234Z,92.30
2019-03-30T03:26:56.657Z,95.07
2019-03-30T03:29:23.991Z,92.67
2019-03-30T03:31:51.403Z,91.53
2019-03-30T03:34:18.829Z,100.80
2019-03-30T03:36:46.165Z,98.10
2019-03-30T03:39:13.700Z,98.60
2019-03-30T03:41:40.999Z,96.20
2019-03-30T03:44:08.361Z,92.70
2019-03-30T03:46:35.748Z,92.17
2019-03-30T03:49:03.162Z,93.57
2019-03-30T03:51:30.609Z,92.03
2019-03-30T03:53:58.029Z,97.67
2019-03-30T03:56:25.418Z,98.47
2019-03-30T03:58:52.845Z,96.40
2019-03-30T04:01:20.288Z,93.70
2019-03-30T04:03:47.609Z,93.73
2019-03-30T04:06:15.018Z,91.67
2019-03-30T04:08:42.782Z,93.03
2019-03-30T04:11:10.178Z,90.77
2019-03-30T04:13:37.569Z,93.43
2019-03-30T04:16:06.562Z,96.57
2019-03-30T04:18:33.933Z,95.43
2019-03-30T04:21:01.242Z,92.20
2019-03-30T04:23:28.627Z,95.47
2019-03-30T04:25:55.978Z,93.00
2019-03-30T04:28:23.424Z,94.87
2019-03-30T04:30:50.772Z,94.43
2019-03-30T04:33:18.276Z,92.53
2019-03-30T04:35:45.660Z,90.10
2019-03-30T04:38:15.913Z,92.70
2019-03-30T04:40:43.235Z,90.93
2019-03-30T04:43:10.801Z,91.87
2019-03-30T04:45:38.149Z,97.00
2019-03-30T04:48:05.561Z,99.27
2019-03-30T04:50:32.908Z,98.00
2019-03-30T04:53:03.292Z,98.73
2019-03-30T04:55:30.731Z,100.13
2019-03-30T04:57:58.215Z,97.93
2019-03-30T05:00:25.554Z,103.70
2019-03-30T05:02:52.917Z,99.37
2019-03-30T05:05:20.281Z,95.93
2019-03-30T05:07:47.698Z,100.70
2019-03-30T05:10:15.125Z,97.37
2019-03-30T05:12:42.553Z,95.73
2019-03-30T05:15:09.894Z,98.77
2019-03-30T05:17:46.834Z,97.03
2019-03-30T05:20:06.236Z,95.17
2019-03-30T05:22:33.674Z,94.27
2019-03-30T05:25:01.087Z,95.23
2019-03-30T05:27:28.548Z,94.20
2019-03-30T05:29:55.845Z,91.63
2019-03-30T05:32:23.231Z,86.17
2019-03-30T05:34:50.674Z,86.27
2019-03-30T05:37:18.006Z,86.60
2019-03-30T05:39:47.784Z,88.70
2019-03-30T05:42:15.275Z,91.97
2019-03-30T05:44:42.584Z,98.87
2019-03-30T05:47:09.946Z,91.53
2019-03-30T05:49:37.378Z,89.70
2019-03-30T05:52:04.854Z,93.80
2019-03-30T05:54:32.369Z,94.77
2019-03-30T05:56:59.905Z,99.03
2019-03-30T05:59:27.264Z,95.57
2019-03-30T06:01:54.744Z,93.80
2019-03-30T06:04:23.813Z,92.57
2019-03-30T06:06:51.204Z,91.73
2019-03-30T06:09:18.698Z,97.27
2019-03-30T06:11:46.067Z,94.07
2019-03-30T06:14:13.509Z,96.10
2019-03-30T06:16:40.850Z,94.43
2019-03-30T06:19:08.401Z,97.07
2019-03-30T06:21:35.884Z,96.57
2019-03-30T06:24:03.234Z,98.37
2019-03-30T06:26:30.582Z,97.07
2019-03-30T06:28:57.942Z,96.67
2019-03-30T06:31:25.306Z,96.90
2019-03-30T06:33:55.267Z,96.50
2019-03-30T06:36:22.705Z,95.10
2019-03-30T06:38:50.075Z,95.07
2019-03-30T06:41:17.605Z,91.93
2019-03-30T06:43:45.004Z,93.13
2019-03-30T06:46:12.446Z,92.93
2019-03-30T06:48:40.768Z,94.17
2019-03-30T06:51:09.888Z,96.50
2019-03-30T06:53:37.401Z,94.47
2019-03-30T06:56:04.838Z,98.30
2019-03-30T06:58:32.411Z,100.20
2019-03-30T07:00:59.970Z,96.53
2019-03-30T07:03:29.752Z,94.97
2019-03-30T07:05:57.282Z,92.20
2019-03-30T07:08:24.802Z,89.47
2019-03-30T07:10:53.920Z,90.93
2019-03-30T07:13:21.448Z,88.27
2019-03-30T07:15:52.013Z,88.70
2019-03-30T07:18:22.348Z,85.97
2019-03-30T07:20:49.863Z,88.60
2019-03-30T07:23:18.289Z,87.80
2019-03-30T07:25:47.265Z,82.57
2019-03-30T07:28:16.087Z,88.93
2019-03-30T07:30:43.694Z,98.03
2019-03-30T07:33:13.236Z,96.13
2019-03-30T07:35:41.963Z,93.97
2019-03-30T07:38:09.684Z,96.90
2019-03-30T07:40:37.143Z,99.63
2019-03-30T07:43:05.423Z,100.73
2019-03-30T07:45:32.885Z,94.13
2019-03-30T07:48:00.381Z,94.93
2019-03-30T07:50:27.906Z,100.20
2019-03-30T07:52:55.437Z,96.67
2019-03-30T07:55:25.399Z,94.37
2019-03-30T07:57:52.943Z,89.10
2019-03-30T08:00:20.272Z,84.67
2019-03-30T08:02:47.748Z,81.13
2019-03-30T08:05:15.149Z,76.90
2019-03-30T08:07:43.836Z,73.20
2019-03-30T08:10:11.299Z,73.30
2019-03-30T08:12:39.904Z,70.97
2019-03-30T08:15:07.456Z,64.80
2019-03-30T08:17:34.818Z,63.33
2019-03-30T08:20:02.213Z,61.60
2019-03-30T08:22:29.562Z,60.60
2019-03-30T08:24:57.060Z,58.17
2019-03-30T08:27:24.455Z,53.20
2019-03-30T08:29:51.921Z,54.13
2019-03-30T08:32:19.250Z,50.57
2019-03-30T08:34:46.693Z,45.07
2019-03-30T08:37:15.812Z,40.83
2019-03-30T08:39:43.149Z,41.40
2019-03-30T08:42:10.548Z,44.17
2019-03-30T08:44:37.920Z,44.87
2019-03-30T08:47:07.827Z,43.50
2019-03-30T08:49:35.363Z,44.40
2019-03-30T08:52:02.771Z,43.30
2019-03-30T08:54:30.305Z,44.43
2019-03-30T08:56:57.855Z,45.00
2019-03-30T08:59:25.247Z,44.93
2019-03-30T09:01:52.586Z,44.07
2019-03-30T09:04:19.993Z,39.47
2019-03-30T09:06:47.669Z,37.57
2019-03-30T09:09:16.739Z,37.47
2019-03-30T09:11:44.239Z,38.03
2019-03-30T09:14:11.601Z,37.77
2019-03-30T09:16:39.079Z,37.93
2019-03-30T09:19:07.660Z,34.87
2019-03-30T09:21:34.986Z,37.17
2019-03-30T09:24:09.381Z,37.37
2019-03-30T09:26:31.467Z,37.00
2019-03-30T09:28:58.895Z,34.40
2019-03-30T09:31:26.320Z,35.23
2019-03-30T09:33:53.791Z,31.97
2019-03-30T09:36:21.105Z,31.07
2019-03-30T09:38:48.637Z,31.97
2019-03-30T09:41:16.226Z,30.27
2019-03-30T09:43:43.748Z,28.90
2019-03-30T09:46:11.297Z,30.23
2019-03-30T09:48:38.695Z,28.47
2019-03-30T09:51:07.716Z,29.57
2019-03-30T09:53:35.277Z,29.07
2019-03-30T09:56:05.638Z,27.63
2019-03-30T09:58:33.274Z,25.93
2019-03-30T10:01:00.906Z,23.27
2019-03-30T10:03:28.977Z,25.57
2019-03-30T10:05:56.416Z,21.03
2019-03-30T10:08:26.608Z,22.43
2019-03-30T10:10:54.057Z,24.67
2019-03-30T10:13:21.520Z,22.83
2019-03-30T10:15:48.872Z,21.07
2019-03-30T10:18:16.224Z,21.53
2019-03-30T10:20:43.599Z,23.47
2019-03-30T10:23:11.213Z,22.37
2019-03-30T10:25:38.661Z,24.10
2019-03-30T10:28:06.115Z,24.07
2019-03-30T10:30:33.891Z,22.37
2019-03-30T10:33:01.375Z,21.70
2019-03-30T10:35:28.834Z,21.87
2019-03-30T10:37:58.242Z,22.33
2019-03-30T10:40:25.293Z,22.73
2019-03-30T10:42:52.716Z,22.87
2019-03-30T10:45:20.186Z,17.83
2019-03-30T10:47:48.920Z,17.87
2019-03-30T10:50:18.074Z,19.70
2019-03-30T10:52:45.498Z,20.93
2019-03-30T10:55:13.001Z,21.23
2019-03-30T10:57:40.448Z,21.63
2019-03-30T11:00:09.596Z,22.37
2019-03-30T11:02:39.194Z,22.97
2019-03-30T11:05:06.939Z,21.87
2019-03-30T11:07:34.282Z,21.57
2019-03-30T11:10:01.710Z,21.17
2019-03-30T11:12:29.026Z,18.90
2019-03-30T11:15:00.754Z,19.03
2019-03-30T11:17:28.229Z,19.80
2019-03-30T11:19:56.846Z,18.97
2019-03-30T11:22:24.342Z,18.27
2019-03-30T11:25:06.201Z,16.30
2019-03-30T11:27:20.904Z,14.30
2019-03-30T11:29:49.886Z,14.87
2019-03-30T11:32:17.327Z,14.50
2019-03-30T11:34:44.728Z,15.87
2019-03-30T11:37:12.120Z,14.77
2019-03-30T11:39:39.918Z,13.67
2019-03-30T11:42:07.265Z,13.13
2019-03-30T11:44:35.074Z,13.77
2019-03-30T11:47:02.840Z,13.87
2019-03-30T11:49:30.205Z,14.70
2019-03-30T11:51:57.675Z,14.23
2019-03-30T11:54:27.646Z,16.43
2019-03-30T11:56:55.506Z,16.13
2019-03-30T11:59:22.812Z,16.03
2019-03-30T12:01:50.214Z,17.57
2019-03-30T12:04:17.505Z,15.60
2019-03-30T12:06:45.026Z,17.23
2019-03-30T12:09:12.438Z,17.10
2019-03-30T12:11:40.214Z,17.40
2019-03-30T12:14:08.610Z,16.70
2019-03-30T12:16:36.868Z,15.53
2019-03-30T12:19:04.270Z,16.63
2019-03-30T12:21:31.751Z,16.37
2019-03-30T12:24:00.728Z,15.77
2019-03-30T12:26:34.141Z,14.90
2019-03-30T12:28:57.481Z,15.60
2019-03-30T12:31:24.974Z,16.73
2019-03-30T12:33:52.440Z,16.80
2019-03-30T12:36:19.919Z,16.97
2019-03-30T12:38:48.507Z,17.17
2019-03-30T12:41:15.934Z,17.07
2019-03-30T12:43:43.364Z,17.83
2019-03-30T12:46:10.722Z,16.60
2019-03-30T12:48:38.044Z,16.47
2019-03-30T12:51:05.488Z,16.73
2019-03-30T12:53:49.150Z,89.10
2019-03-30T12:56:08.977Z,22.40
2019-03-30T12:58:36.370Z,15.10
2019-03-30T13:01:03.880Z,14.77
2019-03-30T13:03:34.548Z,15.00
2019-03-30T13:06:01.908Z,15.10
2019-03-30T13:08:34.379Z,10.50
2019-03-30T13:11:02.387Z,11.03
2019-03-30T13:13:32.667Z,10.53
2019-03-30T13:16:03.450Z,10.53
2019-03-30T13:18:33.243Z,11.30
2019-03-30T13:21:21.207Z,11.87
2019-03-30T13:23:48.605Z,12.13
2019-03-30T13:29:14.024Z,11.20
2019-03-30T13:31:46.188Z,10.37
2019-03-30T13:34:19.603Z,13.20
2019-03-30T13:39:46.659Z,9.30
2019-03-30T13:42:14.145Z,9.90
2019-03-30T13:44:41.476Z,11.73
2019-03-30T13:47:08.993Z,12.97
2019-03-30T13:49:36.426Z,11.90
2019-03-30T13:52:03.934Z,11.33
2019-03-30T13:54:31.452Z,11.60
2019-03-30T13:56:58.837Z,11.20
2019-03-30T13:59:26.614Z,10.50
2019-03-30T14:01:54.031Z,10.60
2019-03-30T14:04:21.371Z,11.50
2019-03-30T14:06:48.805Z,11.27
2019-03-30T14:09:16.258Z,10.50
2019-03-30T14:11:44.852Z,10.67
2019-03-30T14:14:12.208Z,8.87
2019-03-30T14:16:39.596Z,9.90
2019-03-30T14:19:07.398Z,9.43
2019-03-30T14:21:34.799Z,9.03
2019-03-30T14:24:02.106Z,9.93
2019-03-30T14:26:31.668Z,10.40
2019-03-30T14:28:58.611Z,11.17
2019-03-30T14:31:26.035Z,10.77
2019-03-30T14:33:53.813Z,10.03
2019-03-30T14:36:21.346Z,10.60
2019-03-30T14:38:53.304Z,11.20
2019-03-30T14:41:20.642Z,10.30
2019-03-30T14:43:48.118Z,10.70
2019-03-30T14:46:15.629Z,10.27
2019-03-30T14:48:43.369Z,10.67
2019-03-30T14:51:13.887Z,11.13
2019-03-30T14:53:42.046Z,10.67
2019-03-30T14:56:10.869Z,11.47
2019-03-30T14:58:38.336Z,11.33
2019-03-30T15:01:05.705Z,10.70
2019-03-30T15:03:33.191Z,12.40
2019-03-30T15:06:00.545Z,11.10
2019-03-30T15:08:27.864Z,10.77
2019-03-30T15:10:55.501Z,13.00
2019-03-30T15:13:22.951Z,11.83
2019-03-30T15:15:50.662Z,11.77
2019-03-30T15:18:18.000Z,13.17
2019-03-30T15:20:45.461Z,14.47
2019-03-30T15:23:12.776Z,12.53
2019-03-30T15:25:40.267Z,12.80
2019-03-30T15:28:07.615Z,13.07
2019-03-30T15:30:35.025Z,12.30
2019-03-30T15:33:03.550Z,12.37
2019-03-30T15:35:31.023Z,11.03
2019-03-30T15:37:58.438Z,11.53
2019-03-30T15:40:25.748Z,11.40
2019-03-30T15:42:53.054Z,11.97
2019-03-30T15:45:20.447Z,11.57
2019-03-30T15:47:47.821Z,10.13
2019-03-30T15:50:15.231Z,10.23
2019-03-30T15:52:42.592Z,10.73
2019-03-30T15:55:09.963Z,9.53
2019-03-30T15:57:37.295Z,10.00
2019-03-30T16:00:08.054Z,10.57
2019-03-30T16:02:35.349Z,11.03
2019-03-30T16:05:02.748Z,10.63
2019-03-30T16:07:30.173Z,10.40
2019-03-30T16:09:57.548Z,10.33
2019-03-30T16:12:25.170Z,9.83
2019-03-30T16:14:52.606Z,9.50
2019-03-30T16:17:20.075Z,9.07
2019-03-30T16:19:47.406Z,9.17
2019-03-30T16:22:14.823Z,8.57
2019-03-30T16:24:42.485Z,9.03
2019-03-30T16:27:09.894Z,9.87
2019-03-30T16:29:37.295Z,10.00
2019-03-30T16:32:04.704Z,8.63
2019-03-30T16:34:32.128Z,8.87
2019-03-30T16:36:59.458Z,8.03
2019-03-30T16:39:26.817Z,9.20
2019-03-30T16:41:54.247Z,15.60
2019-03-30T16:44:21.588Z,18.07
2019-03-30T16:46:48.962Z,15.10
2019-03-30T16:49:16.338Z,14.40
2019-03-30T16:51:43.766Z,12.93
2019-03-30T16:54:11.116Z,11.37
2019-03-30T16:56:38.523Z,12.30
2019-03-30T16:59:06.274Z,13.00
2019-03-30T17:01:33.691Z,12.23
2019-03-30T17:04:01.052Z,12.80
2019-03-30T17:06:28.502Z,13.43
2019-03-30T17:08:55.818Z,12.17
2019-03-30T17:11:23.287Z,12.37
2019-03-30T17:13:50.608Z,71.33
2019-03-30T17:16:17.993Z,13.13
2019-03-30T17:18:45.419Z,14.10
2019-03-30T17:21:12.761Z,10.97
2019-03-30T17:23:40.156Z,15.30
2019-03-30T17:26:07.537Z,28.30
2019-03-30T17:28:34.884Z,26.87
2019-03-30T17:31:02.357Z,24.30
2019-03-30T17:33:29.697Z,26.67
2019-03-30T17:35:57.092Z,28.47
2019-03-30T17:38:24.530Z,35.40
2019-03-30T17:40:51.865Z,39.23
2019-03-30T17:43:19.180Z,41.63
2019-03-30T17:45:46.538Z,51.30
2019-03-30T17:48:13.853Z,62.80
2019-03-30T17:50:41.220Z,85.30
2019-03-30T17:53:08.565Z,100.97
2019-03-30T17:55:35.923Z,125.27
2019-03-30T17:58:12.789Z,133.23
2019-03-30T18:00:32.464Z,146.60
2019-03-30T18:02:59.925Z,117.03
2019-03-30T18:05:27.278Z,91.30
2019-03-30T18:07:54.627Z,79.60
2019-03-30T18:10:22.020Z,71.37
2019-03-30T18:12:49.404Z,67.20
2019-03-30T18:15:16.755Z,59.93
2019-03-30T18:17:44.098Z,65.45
2019-03-30T18:20:11.523Z,62.50
2019-03-30T18:22:38.940Z,55.60
2019-03-30T18:25:06.867Z,54.53
2019-03-30T18:27:34.173Z,54.47
2019-03-30T18:30:01.501Z,53.73
2019-03-30T18:32:28.817Z,54.83
2019-03-30T18:34:56.435Z,51.47
2019-03-30T18:37:23.921Z,59.10
2019-03-30T18:39:51.276Z,50.60
2019-03-30T18:42:18.595Z,43.63
2019-03-30T18:44:45.973Z,42.20
2019-03-30T18:47:13.293Z,42.83
2019-03-30T18:49:42.702Z,44.90
2019-03-30T18:52:10.322Z,55.07
2019-03-30T18:54:37.730Z,57.73
2019-03-30T18:57:05.047Z,57.73
2019-03-30T18:59:32.419Z,45.00
2019-03-30T19:01:59.822Z,51.90
2019-03-30T19:04:27.143Z,52.63
2019-03-30T19:06:54.487Z,49.73
2019-03-30T19:09:21.815Z,54.30
2019-03-30T19:11:49.206Z,48.27
2019-03-30T19:14:16.525Z,46.40
2019-03-30T19:16:43.878Z,44.23
2019-03-30T19:19:11.273Z,45.33
2019-03-30T19:21:38.698Z,47.07
2019-03-30T19:24:06.025Z,45.20
2019-03-30T19:26:33.388Z,44.87
2019-03-30T19:29:00.787Z,45.57
2019-03-30T19:31:28.105Z,46.73
2019-03-30T19:33:55.489Z,50.20
2019-03-30T19:36:22.853Z,43.77
2019-03-30T19:38:50.253Z,44.53
2019-03-30T19:41:17.712Z,52.23
2019-03-30T19:43:45.099Z,60.50
2019-03-30T19:46:12.513Z,61.30
2019-03-30T19:48:39.869Z,68.73
2019-03-30T19:51:07.218Z,68.37
2019-03-30T19:53:34.628Z,69.47
2019-03-30T19:56:02.011Z,72.67
2019-03-30T19:58:29.333Z,76.83
2019-03-30T20:00:56.830Z,80.23
2019-03-30T20:03:24.198Z,76.47
2019-03-30T20:05:51.513Z,72.83
2019-03-30T20:08:18.838Z,72.67
2019-03-30T20:10:46.237Z,65.83
2019-03-30T20:13:13.661Z,54.93
2019-03-30T20:15:41.004Z,76.27
2019-03-30T20:18:08.393Z,68.23
2019-03-30T20:20:35.711Z,76.80
2019-03-30T20:23:03.026Z,69.27
2019-03-30T20:25:30.487Z,74.93
2019-03-30T20:27:57.795Z,78.60
2019-03-30T20:30:25.183Z,75.57
2019-03-30T20:32:52.574Z,71.00
2019-03-30T20:35:19.968Z,63.73
2019-03-30T20:37:47.289Z,90.63
2019-03-30T20:40:15.081Z,133.60
2019-03-30T20:42:42.505Z,91.80
2019-03-30T20:45:09.958Z,79.47
2019-03-30T20:47:37.379Z,77.80
2019-03-30T20:50:05.473Z,70.87
2019-03-30T20:52:32.869Z,75.00
2019-03-30T20:55:00.332Z,71.37
2019-03-30T20:57:27.629Z,72.10
2019-03-30T20:59:54.979Z,71.93
2019-03-30T21:02:22.313Z,69.87
2019-03-30T21:04:49.719Z,67.50
2019-03-30T21:07:17.302Z,67.30
2019-03-30T21:09:44.736Z,68.97
2019-03-30T21:12:12.173Z,67.43
2019-03-30T21:14:39.530Z,67.13
2019-03-30T21:17:06.866Z,71.33
2019-03-30T21:19:34.258Z,93.13
2019-03-30T21:22:01.616Z,91.23
2019-03-30T21:24:29.021Z,92.13
2019-03-30T21:26:56.372Z,87.70
2019-03-30T21:29:23.837Z,82.53
2019-03-30T21:31:51.263Z,76.07
2019-03-30T21:34:18.697Z,75.57
2019-03-30T21:36:46.053Z,73.30
2019-03-30T21:39:13.538Z,73.10
2019-03-30T21:41:40.972Z,73.03
2019-03-30T21:44:21.408Z,72.90
2019-03-30T21:46:37.478Z,70.97
2019-03-30T21:49:05.038Z,72.40
2019-03-30T21:51:32.382Z,76.40
2019-03-30T21:53:59.695Z,80.97
2019-03-30T21:56:27.046Z,88.23
2019-03-30T21:58:54.409Z,85.77
2019-03-30T22:01:21.785Z,89.37
2019-03-30T22:03:49.203Z,87.70
2019-03-30T22:06:16.867Z,87.93
2019-03-30T22:08:44.194Z,87.43
2019-03-30T22:11:12.694Z,86.77
2019-03-30T22:13:39.965Z,86.80
2019-03-30T22:16:07.312Z,90.37
2019-03-30T22:18:34.776Z,95.97
2019-03-30T22:21:02.156Z,87.63
2019-03-30T22:23:29.559Z,80.23
2019-03-30T22:25:56.918Z,76.93
2019-03-30T22:28:24.277Z,78.50
2019-03-30T22:30:51.648Z,75.57
2019-03-30T22:33:18.957Z,77.40
2019-03-30T22:35:46.295Z,84.80
2019-03-30T22:38:13.615Z,89.57
2019-03-30T22:40:41.671Z,95.23
2019-03-30T22:43:09.125Z,90.43
2019-03-30T22:45:36.441Z,92.20
2019-03-30T22:48:04.032Z,88.37
2019-03-30T22:50:31.452Z,89.63
2019-03-30T22:52:58.874Z,88.97
2019-03-30T22:55:26.273Z,86.73
2019-03-30T22:57:53.714Z,86.97
2019-03-30T23:00:41.045Z,86.63
2019-03-30T23:03:08.593Z,83.97
2019-03-30T23:05:35.927Z,84.43
2019-03-30T23:08:03.248Z,84.30
2019-03-30T23:10:30.617Z,82.20
2019-03-30T23:12:57.987Z,85.77
2019-03-30T23:15:25.383Z,81.63
2019-03-30T23:17:52.782Z,78.13
2019-03-30T23:20:20.177Z,83.10
2019-03-30T23:22:47.790Z,83.03
2019-03-30T23:25:15.110Z,82.37
2019-03-30T23:27:42.467Z,83.50
2019-03-30T23:30:09.814Z,83.77
2019-03-30T23:32:37.240Z,91.10
2019-03-30T23:35:05.490Z,87.80
2019-03-30T23:37:32.904Z,88.33
2019-03-30T23:40:00.441Z,85.57
2019-03-30T23:42:27.827Z,87.07
2019-03-30T23:44:55.151Z,90.87
2019-03-30T23:47:22.493Z,87.23
2019-03-30T23:49:49.818Z,86.73
2019-03-30T23:52:17.167Z,87.27
2019-03-30T23:54:44.489Z,85.60
2019-03-30T23:57:11.874Z,83.33
2019-03-30T23:59:39.267Z,81.03
